sensor_id;sensor_type;location;lat;lon;timestamp;P1;durP1;ratioP1;P2;durP2;ratioP2
13349;SDS011;6744;53.190;6.576;2023-08-06T00:00:20;6.50;;;5.90;;
13349;SDS011;6744;53.190;6.576;2023-08-06T00:02:46;5.80;;;5.30;;
13349;SDS011;6744;53.190;6.576;2023-08-06T00:05:11;7.03;;;6.33;;
13349;SDS011;6744;53.190;6.576;2023-08-06T00:07:37;5.70;;;5.27;;
13349;SDS011;6744;53.190;6.576;2023-08-06T00:10:02;6.23;;;5.73;;
13349;SDS011;6744;53.190;6.576;2023-08-06T00:12:28;7.80;;;7.00;;
13349;SDS011;6744;53.190;6.576;2023-08-06T00:14:53;6.47;;;5.87;;
13349;SDS011;6744;53.190;6.576;2023-08-06T00:17:18;6.33;;;5.83;;
13349;SDS011;6744;53.190;6.576;2023-08-06T00:19:44;7.20;;;6.50;;
13349;SDS011;6744;53.190;6.576;2023-08-06T00:22:09;6.90;;;6.20;;
13349;SDS011;6744;53.190;6.576;2023-08-06T00:24:35;6.50;;;6.00;;
13349;SDS011;6744;53.190;6.576;2023-08-06T00:27:01;8.00;;;7.10;;
13349;SDS011;6744;53.190;6.576;2023-08-06T00:29:26;6.37;;;5.77;;
13349;SDS011;6744;53.190;6.576;2023-08-06T00:31:52;7.60;;;6.80;;
13349;SDS011;6744;53.190;6.576;2023-08-06T00:34:17;6.70;;;6.10;;
13349;SDS011;6744;53.190;6.576;2023-08-06T00:36:42;6.00;;;5.33;;
13349;SDS011;6744;53.190;6.576;2023-08-06T00:39:08;7.60;;;5.87;;
13349;SDS011;6744;53.190;6.576;2023-08-06T00:41:33;7.27;;;6.57;;
13349;SDS011;6744;53.190;6.576;2023-08-06T00:43:59;8.27;;;7.00;;
13349;SDS011;6744;53.190;6.576;2023-08-06T00:46:24;6.43;;;5.93;;
13349;SDS011;6744;53.190;6.576;2023-08-06T00:48:49;6.17;;;5.57;;
13349;SDS011;6744;53.190;6.576;2023-08-06T00:51:15;6.30;;;5.73;;
13349;SDS011;6744;53.190;6.576;2023-08-06T00:53:41;6.00;;;5.50;;
13349;SDS011;6744;53.190;6.576;2023-08-06T00:56:06;6.47;;;5.87;;
13349;SDS011;6744;53.190;6.576;2023-08-06T00:58:32;6.07;;;5.47;;
13349;SDS011;6744;53.190;6.576;2023-08-06T01:00:58;6.33;;;5.83;;
13349;SDS011;6744;53.190;6.576;2023-08-06T01:03:23;7.33;;;6.73;;
13349;SDS011;6744;53.190;6.576;2023-08-06T01:05:49;6.30;;;5.70;;
13349;SDS011;6744;53.190;6.576;2023-08-06T01:10:51;7.10;;;6.50;;
13349;SDS011;6744;53.190;6.576;2023-08-06T01:13:23;6.97;;;6.00;;
13349;SDS011;6744;53.190;6.576;2023-08-06T01:15:50;7.20;;;6.50;;
13349;SDS011;6744;53.190;6.576;2023-08-06T01:18:20;7.27;;;6.67;;
13349;SDS011;6744;53.190;6.576;2023-08-06T01:20:46;6.80;;;6.20;;
13349;SDS011;6744;53.190;6.576;2023-08-06T01:23:11;6.77;;;6.17;;
13349;SDS011;6744;53.190;6.576;2023-08-06T01:25:43;6.63;;;6.03;;
13349;SDS011;6744;53.190;6.576;2023-08-06T01:28:32;6.87;;;6.27;;
13349;SDS011;6744;53.190;6.576;2023-08-06T01:31:10;6.97;;;6.30;;
13349;SDS011;6744;53.190;6.576;2023-08-06T01:33:44;9.30;;;8.43;;
13349;SDS011;6744;53.190;6.576;2023-08-06T01:36:10;10.03;;;7.70;;
13349;SDS011;6744;53.190;6.576;2023-08-06T01:38:36;10.10;;;9.10;;
13349;SDS011;6744;53.190;6.576;2023-08-06T01:41:01;8.30;;;7.50;;
13349;SDS011;6744;53.190;6.576;2023-08-06T01:43:26;7.40;;;6.60;;
13349;SDS011;6744;53.190;6.576;2023-08-06T01:45:52;8.37;;;7.57;;
13349;SDS011;6744;53.190;6.576;2023-08-06T01:48:17;10.13;;;8.93;;
13349;SDS011;6744;53.190;6.576;2023-08-06T01:50:42;9.23;;;8.33;;
13349;SDS011;6744;53.190;6.576;2023-08-06T01:53:08;10.83;;;9.83;;
13349;SDS011;6744;53.190;6.576;2023-08-06T01:55:33;10.63;;;9.60;;
13349;SDS011;6744;53.190;6.576;2023-08-06T01:57:59;9.87;;;8.90;;
13349;SDS011;6744;53.190;6.576;2023-08-06T02:00:24;9.93;;;8.93;;
13349;SDS011;6744;53.190;6.576;2023-08-06T02:02:49;8.40;;;7.70;;
13349;SDS011;6744;53.190;6.576;2023-08-06T02:05:15;9.80;;;8.83;;
13349;SDS011;6744;53.190;6.576;2023-08-06T02:07:40;10.70;;;9.60;;
13349;SDS011;6744;53.190;6.576;2023-08-06T02:10:06;8.33;;;7.63;;
13349;SDS011;6744;53.190;6.576;2023-08-06T02:12:31;8.73;;;7.93;;
13349;SDS011;6744;53.190;6.576;2023-08-06T02:14:57;9.73;;;8.83;;
13349;SDS011;6744;53.190;6.576;2023-08-06T02:17:22;8.93;;;8.13;;
13349;SDS011;6744;53.190;6.576;2023-08-06T02:19:47;9.67;;;8.87;;
13349;SDS011;6744;53.190;6.576;2023-08-06T02:22:13;9.30;;;8.50;;
13349;SDS011;6744;53.190;6.576;2023-08-06T02:24:38;8.50;;;7.53;;
13349;SDS011;6744;53.190;6.576;2023-08-06T02:27:03;9.37;;;8.57;;
13349;SDS011;6744;53.190;6.576;2023-08-06T02:29:29;9.97;;;9.07;;
13349;SDS011;6744;53.190;6.576;2023-08-06T02:31:54;11.93;;;10.70;;
13349;SDS011;6744;53.190;6.576;2023-08-06T02:34:20;11.47;;;10.47;;
13349;SDS011;6744;53.190;6.576;2023-08-06T02:36:45;9.23;;;8.43;;
13349;SDS011;6744;53.190;6.576;2023-08-06T02:39:10;10.53;;;9.63;;
13349;SDS011;6744;53.190;6.576;2023-08-06T02:41:36;11.50;;;10.50;;
13349;SDS011;6744;53.190;6.576;2023-08-06T02:44:01;10.00;;;9.10;;
13349;SDS011;6744;53.190;6.576;2023-08-06T02:46:27;11.83;;;10.83;;
13349;SDS011;6744;53.190;6.576;2023-08-06T02:48:52;10.70;;;9.73;;
13349;SDS011;6744;53.190;6.576;2023-08-06T02:51:17;12.63;;;11.43;;
13349;SDS011;6744;53.190;6.576;2023-08-06T02:53:43;10.53;;;9.63;;
13349;SDS011;6744;53.190;6.576;2023-08-06T02:56:08;14.20;;;12.77;;
13349;SDS011;6744;53.190;6.576;2023-08-06T02:58:33;12.77;;;11.63;;
13349;SDS011;6744;53.190;6.576;2023-08-06T03:00:59;11.70;;;10.70;;
13349;SDS011;6744;53.190;6.576;2023-08-06T03:03:29;11.27;;;10.27;;
13349;SDS011;6744;53.190;6.576;2023-08-06T03:05:58;11.07;;;9.97;;
13349;SDS011;6744;53.190;6.576;2023-08-06T03:08:23;11.07;;;10.13;;
13349;SDS011;6744;53.190;6.576;2023-08-06T03:10:49;12.57;;;11.43;;
13349;SDS011;6744;53.190;6.576;2023-08-06T03:13:15;11.47;;;10.47;;
13349;SDS011;6744;53.190;6.576;2023-08-06T03:15:44;10.10;;;9.10;;
13349;SDS011;6744;53.190;6.576;2023-08-06T03:18:19;9.97;;;9.07;;
13349;SDS011;6744;53.190;6.576;2023-08-06T03:20:45;11.47;;;10.30;;
13349;SDS011;6744;53.190;6.576;2023-08-06T03:23:11;11.17;;;10.17;;
13349;SDS011;6744;53.190;6.576;2023-08-06T03:25:36;10.97;;;9.87;;
13349;SDS011;6744;53.190;6.576;2023-08-06T03:28:02;11.10;;;10.10;;
13349;SDS011;6744;53.190;6.576;2023-08-06T03:30:27;10.93;;;9.93;;
13349;SDS011;6744;53.190;6.576;2023-08-06T03:32:52;11.77;;;10.67;;
13349;SDS011;6744;53.190;6.576;2023-08-06T03:35:18;12.83;;;11.53;;
13349;SDS011;6744;53.190;6.576;2023-08-06T03:37:43;12.60;;;11.27;;
13349;SDS011;6744;53.190;6.576;2023-08-06T03:40:09;10.43;;;9.43;;
13349;SDS011;6744;53.190;6.576;2023-08-06T03:42:35;9.27;;;8.37;;
13349;SDS011;6744;53.190;6.576;2023-08-06T03:45:00;9.97;;;9.03;;
13349;SDS011;6744;53.190;6.576;2023-08-06T03:47:25;10.37;;;9.37;;
13349;SDS011;6744;53.190;6.576;2023-08-06T03:49:51;9.70;;;8.90;;
13349;SDS011;6744;53.190;6.576;2023-08-06T03:52:16;10.33;;;9.33;;
13349;SDS011;6744;53.190;6.576;2023-08-06T03:54:41;9.33;;;8.60;;
13349;SDS011;6744;53.190;6.576;2023-08-06T03:57:08;9.90;;;9.00;;
13349;SDS011;6744;53.190;6.576;2023-08-06T03:59:33;9.23;;;8.43;;
13349;SDS011;6744;53.190;6.576;2023-08-06T04:01:59;9.80;;;9.00;;
13349;SDS011;6744;53.190;6.576;2023-08-06T04:04:24;9.70;;;8.90;;
13349;SDS011;6744;53.190;6.576;2023-08-06T04:06:49;8.77;;;7.97;;
13349;SDS011;6744;53.190;6.576;2023-08-06T04:09:15;9.17;;;8.30;;
13349;SDS011;6744;53.190;6.576;2023-08-06T04:11:40;8.67;;;7.87;;
13349;SDS011;6744;53.190;6.576;2023-08-06T04:14:06;8.00;;;7.30;;
13349;SDS011;6744;53.190;6.576;2023-08-06T04:16:31;9.67;;;8.47;;
13349;SDS011;6744;53.190;6.576;2023-08-06T04:18:56;8.87;;;8.03;;
13349;SDS011;6744;53.190;6.576;2023-08-06T04:21:23;8.23;;;7.53;;
13349;SDS011;6744;53.190;6.576;2023-08-06T04:23:48;7.67;;;7.07;;
13349;SDS011;6744;53.190;6.576;2023-08-06T04:26:14;8.80;;;8.00;;
13349;SDS011;6744;53.190;6.576;2023-08-06T04:28:39;9.90;;;9.00;;
13349;SDS011;6744;53.190;6.576;2023-08-06T04:31:04;8.70;;;7.93;;
13349;SDS011;6744;53.190;6.576;2023-08-06T04:33:30;8.47;;;7.50;;
13349;SDS011;6744;53.190;6.576;2023-08-06T04:35:55;9.80;;;8.90;;
13349;SDS011;6744;53.190;6.576;2023-08-06T04:38:22;8.73;;;8.03;;
13349;SDS011;6744;53.190;6.576;2023-08-06T04:40:50;12.17;;;10.93;;
13349;SDS011;6744;53.190;6.576;2023-08-06T04:43:16;10.80;;;9.80;;
13349;SDS011;6744;53.190;6.576;2023-08-06T04:45:51;8.87;;;8.17;;
13349;SDS011;6744;53.190;6.576;2023-08-06T04:48:18;11.13;;;10.03;;
13349;SDS011;6744;53.190;6.576;2023-08-06T04:50:44;9.70;;;8.67;;
13349;SDS011;6744;53.190;6.576;2023-08-06T04:53:10;10.67;;;9.73;;
13349;SDS011;6744;53.190;6.576;2023-08-06T04:55:35;9.30;;;8.47;;
13349;SDS011;6744;53.190;6.576;2023-08-06T04:58:01;10.03;;;9.03;;
13349;SDS011;6744;53.190;6.576;2023-08-06T05:00:26;8.50;;;7.80;;
13349;SDS011;6744;53.190;6.576;2023-08-06T05:02:51;7.93;;;7.27;;
13349;SDS011;6744;53.190;6.576;2023-08-06T05:05:17;7.13;;;6.53;;
13349;SDS011;6744;53.190;6.576;2023-08-06T05:07:42;8.50;;;7.70;;
13349;SDS011;6744;53.190;6.576;2023-08-06T05:10:07;8.27;;;7.47;;
13349;SDS011;6744;53.190;6.576;2023-08-06T05:12:33;8.07;;;7.37;;
13349;SDS011;6744;53.190;6.576;2023-08-06T05:14:58;8.43;;;7.67;;
13349;SDS011;6744;53.190;6.576;2023-08-06T05:17:24;8.00;;;7.23;;
13349;SDS011;6744;53.190;6.576;2023-08-06T05:19:49;7.57;;;6.87;;
13349;SDS011;6744;53.190;6.576;2023-08-06T05:22:14;7.20;;;6.60;;
13349;SDS011;6744;53.190;6.576;2023-08-06T05:24:40;7.63;;;7.03;;
13349;SDS011;6744;53.190;6.576;2023-08-06T05:27:05;6.93;;;6.37;;
13349;SDS011;6744;53.190;6.576;2023-08-06T05:29:30;7.17;;;6.53;;
13349;SDS011;6744;53.190;6.576;2023-08-06T05:31:56;7.43;;;6.80;;
13349;SDS011;6744;53.190;6.576;2023-08-06T05:34:21;7.60;;;6.87;;
13349;SDS011;6744;53.190;6.576;2023-08-06T05:36:47;8.47;;;7.67;;
13349;SDS011;6744;53.190;6.576;2023-08-06T05:39:12;6.97;;;6.37;;
13349;SDS011;6744;53.190;6.576;2023-08-06T05:41:37;8.33;;;7.60;;
13349;SDS011;6744;53.190;6.576;2023-08-06T05:44:03;7.53;;;6.83;;
13349;SDS011;6744;53.190;6.576;2023-08-06T05:46:28;8.37;;;7.57;;
13349;SDS011;6744;53.190;6.576;2023-08-06T05:48:53;7.70;;;7.10;;
13349;SDS011;6744;53.190;6.576;2023-08-06T05:51:19;9.73;;;8.83;;
13349;SDS011;6744;53.190;6.576;2023-08-06T05:53:45;10.40;;;9.40;;
13349;SDS011;6744;53.190;6.576;2023-08-06T05:56:11;10.00;;;9.00;;
13349;SDS011;6744;53.190;6.576;2023-08-06T05:58:37;10.40;;;9.37;;
13349;SDS011;6744;53.190;6.576;2023-08-06T06:01:02;9.47;;;8.67;;
13349;SDS011;6744;53.190;6.576;2023-08-06T06:03:28;10.77;;;9.83;;
13349;SDS011;6744;53.190;6.576;2023-08-06T06:05:53;12.30;;;11.23;;
13349;SDS011;6744;53.190;6.576;2023-08-06T06:08:18;10.90;;;9.73;;
13349;SDS011;6744;53.190;6.576;2023-08-06T06:10:44;10.97;;;9.87;;
13349;SDS011;6744;53.190;6.576;2023-08-06T06:13:09;11.40;;;10.40;;
13349;SDS011;6744;53.190;6.576;2023-08-06T06:15:34;10.33;;;9.33;;
13349;SDS011;6744;53.190;6.576;2023-08-06T06:18:00;10.10;;;9.10;;
13349;SDS011;6744;53.190;6.576;2023-08-06T06:20:25;11.00;;;9.90;;
13349;SDS011;6744;53.190;6.576;2023-08-06T06:22:50;9.80;;;9.00;;
13349;SDS011;6744;53.190;6.576;2023-08-06T06:25:16;9.33;;;8.53;;
13349;SDS011;6744;53.190;6.576;2023-08-06T06:27:41;9.20;;;8.30;;
13349;SDS011;6744;53.190;6.576;2023-08-06T06:30:07;10.10;;;8.97;;
13349;SDS011;6744;53.190;6.576;2023-08-06T06:32:33;10.17;;;9.27;;
13349;SDS011;6744;53.190;6.576;2023-08-06T06:34:59;8.90;;;8.13;;
13349;SDS011;6744;53.190;6.576;2023-08-06T06:37:24;8.30;;;7.50;;
13349;SDS011;6744;53.190;6.576;2023-08-06T06:39:50;9.93;;;8.93;;
13349;SDS011;6744;53.190;6.576;2023-08-06T06:42:15;8.17;;;7.47;;
13349;SDS011;6744;53.190;6.576;2023-08-06T06:44:41;9.50;;;8.70;;
13349;SDS011;6744;53.190;6.576;2023-08-06T06:47:06;8.53;;;7.80;;
13349;SDS011;6744;53.190;6.576;2023-08-06T06:49:32;9.47;;;8.57;;
13349;SDS011;6744;53.190;6.576;2023-08-06T06:51:57;9.43;;;8.63;;
13349;SDS011;6744;53.190;6.576;2023-08-06T06:54:22;8.67;;;7.87;;
13349;SDS011;6744;53.190;6.576;2023-08-06T06:56:48;7.73;;;7.13;;
13349;SDS011;6744;53.190;6.576;2023-08-06T06:59:13;6.90;;;6.27;;
13349;SDS011;6744;53.190;6.576;2023-08-06T07:01:39;7.67;;;6.97;;
13349;SDS011;6744;53.190;6.576;2023-08-06T07:04:04;7.40;;;6.80;;
13349;SDS011;6744;53.190;6.576;2023-08-06T07:06:30;7.73;;;7.03;;
13349;SDS011;6744;53.190;6.576;2023-08-06T07:08:56;8.60;;;7.13;;
13349;SDS011;6744;53.190;6.576;2023-08-06T07:11:21;6.47;;;5.93;;
13349;SDS011;6744;53.190;6.576;2023-08-06T07:13:46;6.53;;;5.93;;
13349;SDS011;6744;53.190;6.576;2023-08-06T07:16:12;7.50;;;6.53;;
13349;SDS011;6744;53.190;6.576;2023-08-06T07:18:37;7.47;;;6.87;;
13349;SDS011;6744;53.190;6.576;2023-08-06T07:21:03;6.10;;;5.50;;
13349;SDS011;6744;53.190;6.576;2023-08-06T07:23:28;6.00;;;5.50;;
13349;SDS011;6744;53.190;6.576;2023-08-06T07:25:53;6.87;;;6.27;;
13349;SDS011;6744;53.190;6.576;2023-08-06T07:28:19;8.17;;;6.57;;
13349;SDS011;6744;53.190;6.576;2023-08-06T07:30:44;7.77;;;7.07;;
13349;SDS011;6744;53.190;6.576;2023-08-06T07:33:10;7.50;;;6.70;;
13349;SDS011;6744;53.190;6.576;2023-08-06T07:35:36;6.10;;;5.60;;
13349;SDS011;6744;53.190;6.576;2023-08-06T07:38:01;6.63;;;6.03;;
13349;SDS011;6744;53.190;6.576;2023-08-06T07:40:27;6.40;;;5.90;;
13349;SDS011;6744;53.190;6.576;2023-08-06T07:42:53;7.17;;;6.53;;
13349;SDS011;6744;53.190;6.576;2023-08-06T07:45:18;7.40;;;6.67;;
13349;SDS011;6744;53.190;6.576;2023-08-06T07:47:43;7.60;;;6.90;;
13349;SDS011;6744;53.190;6.576;2023-08-06T07:50:09;7.23;;;6.63;;
13349;SDS011;6744;53.190;6.576;2023-08-06T07:52:35;6.10;;;5.57;;
13349;SDS011;6744;53.190;6.576;2023-08-06T07:55:00;5.73;;;5.33;;
13349;SDS011;6744;53.190;6.576;2023-08-06T07:57:27;5.30;;;4.80;;
13349;SDS011;6744;53.190;6.576;2023-08-06T07:59:52;6.17;;;5.57;;
13349;SDS011;6744;53.190;6.576;2023-08-06T08:02:19;6.37;;;5.87;;
13349;SDS011;6744;53.190;6.576;2023-08-06T08:04:44;5.43;;;4.40;;
13349;SDS011;6744;53.190;6.576;2023-08-06T08:07:12;4.90;;;4.57;;
13349;SDS011;6744;53.190;6.576;2023-08-06T08:09:37;4.87;;;4.47;;
13349;SDS011;6744;53.190;6.576;2023-08-06T08:12:03;4.53;;;4.17;;
13349;SDS011;6744;53.190;6.576;2023-08-06T08:14:28;4.73;;;4.00;;
13349;SDS011;6744;53.190;6.576;2023-08-06T08:16:54;4.83;;;4.43;;
13349;SDS011;6744;53.190;6.576;2023-08-06T08:19:19;4.43;;;3.60;;
13349;SDS011;6744;53.190;6.576;2023-08-06T08:21:46;3.67;;;3.37;;
13349;SDS011;6744;53.190;6.576;2023-08-06T08:24:11;3.03;;;2.83;;
13349;SDS011;6744;53.190;6.576;2023-08-06T08:26:37;3.50;;;3.03;;
13349;SDS011;6744;53.190;6.576;2023-08-06T08:29:02;3.80;;;3.03;;
13349;SDS011;6744;53.190;6.576;2023-08-06T08:31:27;3.27;;;2.93;;
13349;SDS011;6744;53.190;6.576;2023-08-06T08:33:53;3.50;;;3.20;;
13349;SDS011;6744;53.190;6.576;2023-08-06T08:36:19;3.00;;;2.80;;
13349;SDS011;6744;53.190;6.576;2023-08-06T08:38:44;3.37;;;3.10;;
13349;SDS011;6744;53.190;6.576;2023-08-06T08:41:10;4.10;;;3.23;;
13349;SDS011;6744;53.190;6.576;2023-08-06T08:43:36;3.30;;;2.87;;
13349;SDS011;6744;53.190;6.576;2023-08-06T08:46:01;4.00;;;2.83;;
13349;SDS011;6744;53.190;6.576;2023-08-06T08:48:28;3.30;;;3.00;;
13349;SDS011;6744;53.190;6.576;2023-08-06T08:50:53;2.93;;;2.73;;
13349;SDS011;6744;53.190;6.576;2023-08-06T08:53:20;2.77;;;2.43;;
13349;SDS011;6744;53.190;6.576;2023-08-06T08:55:47;3.20;;;2.90;;
13349;SDS011;6744;53.190;6.576;2023-08-06T08:58:13;2.80;;;2.60;;
13349;SDS011;6744;53.190;6.576;2023-08-06T09:00:40;2.60;;;2.40;;
13349;SDS011;6744;53.190;6.576;2023-08-06T09:03:07;2.83;;;2.60;;
13349;SDS011;6744;53.190;6.576;2023-08-06T09:05:32;3.60;;;3.13;;
13349;SDS011;6744;53.190;6.576;2023-08-06T09:08:04;3.33;;;3.03;;
13349;SDS011;6744;53.190;6.576;2023-08-06T09:10:30;2.97;;;2.70;;
13349;SDS011;6744;53.190;6.576;2023-08-06T09:12:56;3.70;;;3.00;;
13349;SDS011;6744;53.190;6.576;2023-08-06T09:15:26;3.07;;;2.83;;
13349;SDS011;6744;53.190;6.576;2023-08-06T09:17:52;3.90;;;2.60;;
13349;SDS011;6744;53.190;6.576;2023-08-06T09:20:18;2.70;;;2.40;;
13349;SDS011;6744;53.190;6.576;2023-08-06T09:22:43;3.80;;;2.43;;
13349;SDS011;6744;53.190;6.576;2023-08-06T09:25:10;3.33;;;2.70;;
13349;SDS011;6744;53.190;6.576;2023-08-06T09:27:36;2.60;;;2.40;;
13349;SDS011;6744;53.190;6.576;2023-08-06T09:30:02;2.33;;;2.13;;
13349;SDS011;6744;53.190;6.576;2023-08-06T09:32:49;2.87;;;2.10;;
13349;SDS011;6744;53.190;6.576;2023-08-06T09:35:18;2.60;;;2.10;;
13349;SDS011;6744;53.190;6.576;2023-08-06T09:37:43;2.40;;;2.20;;
13349;SDS011;6744;53.190;6.576;2023-08-06T09:40:28;3.30;;;2.20;;
13349;SDS011;6744;53.190;6.576;2023-08-06T09:42:55;8.87;;;2.30;;
13349;SDS011;6744;53.190;6.576;2023-08-06T09:45:22;2.10;;;1.90;;
13349;SDS011;6744;53.190;6.576;2023-08-06T09:47:48;3.17;;;1.80;;
13349;SDS011;6744;53.190;6.576;2023-08-06T09:50:18;2.50;;;2.30;;
13349;SDS011;6744;53.190;6.576;2023-08-06T09:52:44;2.07;;;1.87;;
13349;SDS011;6744;53.190;6.576;2023-08-06T09:55:13;2.40;;;2.20;;
13349;SDS011;6744;53.190;6.576;2023-08-06T09:57:42;1.80;;;1.70;;
13349;SDS011;6744;53.190;6.576;2023-08-06T10:00:08;1.70;;;1.60;;
13349;SDS011;6744;53.190;6.576;2023-08-06T10:02:38;3.20;;;2.07;;
13349;SDS011;6744;53.190;6.576;2023-08-06T10:05:04;1.97;;;1.77;;
13349;SDS011;6744;53.190;6.576;2023-08-06T10:07:30;1.90;;;1.80;;
13349;SDS011;6744;53.190;6.576;2023-08-06T10:09:55;1.53;;;1.43;;
13349;SDS011;6744;53.190;6.576;2023-08-06T10:12:21;2.40;;;1.80;;
13349;SDS011;6744;53.190;6.576;2023-08-06T10:14:47;1.80;;;1.70;;
13349;SDS011;6744;53.190;6.576;2023-08-06T10:17:14;1.73;;;1.63;;
13349;SDS011;6744;53.190;6.576;2023-08-06T10:19:40;3.37;;;1.80;;
13349;SDS011;6744;53.190;6.576;2023-08-06T10:22:16;1.80;;;1.70;;
13349;SDS011;6744;53.190;6.576;2023-08-06T10:24:55;1.60;;;1.50;;
13349;SDS011;6744;53.190;6.576;2023-08-06T10:27:28;3.30;;;1.90;;
13349;SDS011;6744;53.190;6.576;2023-08-06T10:33:04;1.67;;;1.57;;
13349;SDS011;6744;53.190;6.576;2023-08-06T10:35:43;1.93;;;1.73;;
13349;SDS011;6744;53.190;6.576;2023-08-06T10:38:14;1.77;;;1.67;;
13349;SDS011;6744;53.190;6.576;2023-08-06T10:40:43;1.90;;;1.70;;
13349;SDS011;6744;53.190;6.576;2023-08-06T10:45:58;1.80;;;1.70;;
13349;SDS011;6744;53.190;6.576;2023-08-06T10:48:40;2.47;;;1.90;;
13349;SDS011;6744;53.190;6.576;2023-08-06T10:51:12;2.30;;;1.90;;
13349;SDS011;6744;53.190;6.576;2023-08-06T10:53:42;2.00;;;1.90;;
13349;SDS011;6744;53.190;6.576;2023-08-06T10:56:13;2.30;;;2.10;;
13349;SDS011;6744;53.190;6.576;2023-08-06T10:58:39;2.20;;;2.00;;
13349;SDS011;6744;53.190;6.576;2023-08-06T11:01:05;1.87;;;1.70;;
13349;SDS011;6744;53.190;6.576;2023-08-06T11:03:31;3.10;;;1.80;;
13349;SDS011;6744;53.190;6.576;2023-08-06T11:05:57;2.10;;;1.80;;
13349;SDS011;6744;53.190;6.576;2023-08-06T11:08:24;3.77;;;2.00;;
13349;SDS011;6744;53.190;6.576;2023-08-06T11:10:53;1.77;;;1.67;;
13349;SDS011;6744;53.190;6.576;2023-08-06T11:13:19;2.70;;;2.07;;
13349;SDS011;6744;53.190;6.576;2023-08-06T11:15:45;2.40;;;1.87;;
13349;SDS011;6744;53.190;6.576;2023-08-06T11:18:11;2.00;;;1.80;;
13349;SDS011;6744;53.190;6.576;2023-08-06T11:20:36;1.80;;;1.70;;
13349;SDS011;6744;53.190;6.576;2023-08-06T11:23:02;1.80;;;1.43;;
13349;SDS011;6744;53.190;6.576;2023-08-06T11:25:28;2.00;;;1.80;;
13349;SDS011;6744;53.190;6.576;2023-08-06T11:27:54;2.83;;;1.87;;
13349;SDS011;6744;53.190;6.576;2023-08-06T11:30:19;2.13;;;1.93;;
13349;SDS011;6744;53.190;6.576;2023-08-06T11:32:45;1.80;;;1.70;;
13349;SDS011;6744;53.190;6.576;2023-08-06T11:35:12;2.57;;;1.93;;
13349;SDS011;6744;53.190;6.576;2023-08-06T11:37:38;4.13;;;2.17;;
13349;SDS011;6744;53.190;6.576;2023-08-06T11:40:07;2.23;;;1.90;;
13349;SDS011;6744;53.190;6.576;2023-08-06T11:42:33;1.90;;;1.80;;
13349;SDS011;6744;53.190;6.576;2023-08-06T11:45:00;2.40;;;2.10;;
13349;SDS011;6744;53.190;6.576;2023-08-06T11:47:27;2.27;;;2.07;;
13349;SDS011;6744;53.190;6.576;2023-08-06T11:49:53;2.00;;;1.80;;
13349;SDS011;6744;53.190;6.576;2023-08-06T11:52:20;2.60;;;1.70;;
13349;SDS011;6744;53.190;6.576;2023-08-06T11:54:59;1.80;;;1.67;;
13349;SDS011;6744;53.190;6.576;2023-08-06T11:57:26;3.33;;;1.80;;
13349;SDS011;6744;53.190;6.576;2023-08-06T11:59:51;2.70;;;1.80;;
13349;SDS011;6744;53.190;6.576;2023-08-06T12:02:18;1.97;;;1.77;;
13349;SDS011;6744;53.190;6.576;2023-08-06T12:07:50;1.60;;;1.50;;
13349;SDS011;6744;53.190;6.576;2023-08-06T12:10:18;2.20;;;2.00;;
13349;SDS011;6744;53.190;6.576;2023-08-06T12:12:46;2.37;;;1.80;;
13349;SDS011;6744;53.190;6.576;2023-08-06T12:15:12;2.10;;;1.90;;
13349;SDS011;6744;53.190;6.576;2023-08-06T12:17:38;2.83;;;1.87;;
13349;SDS011;6744;53.190;6.576;2023-08-06T12:20:04;2.00;;;1.90;;
13349;SDS011;6744;53.190;6.576;2023-08-06T12:22:30;2.07;;;1.97;;
13349;SDS011;6744;53.190;6.576;2023-08-06T12:25:00;2.83;;;2.00;;
13349;SDS011;6744;53.190;6.576;2023-08-06T12:27:26;3.90;;;2.10;;
13349;SDS011;6744;53.190;6.576;2023-08-06T12:29:51;2.20;;;1.80;;
13349;SDS011;6744;53.190;6.576;2023-08-06T12:32:17;2.10;;;1.80;;
13349;SDS011;6744;53.190;6.576;2023-08-06T12:34:42;3.77;;;2.00;;
13349;SDS011;6744;53.190;6.576;2023-08-06T12:37:08;1.93;;;1.80;;
13349;SDS011;6744;53.190;6.576;2023-08-06T12:39:34;1.87;;;1.77;;
13349;SDS011;6744;53.190;6.576;2023-08-06T12:42:01;3.03;;;1.90;;
13349;SDS011;6744;53.190;6.576;2023-08-06T12:44:27;2.30;;;2.07;;
13349;SDS011;6744;53.190;6.576;2023-08-06T12:46:52;1.80;;;1.70;;
13349;SDS011;6744;53.190;6.576;2023-08-06T12:49:18;1.90;;;1.70;;
13349;SDS011;6744;53.190;6.576;2023-08-06T12:51:46;2.40;;;1.70;;
13349;SDS011;6744;53.190;6.576;2023-08-06T12:54:11;3.13;;;2.03;;
13349;SDS011;6744;53.190;6.576;2023-08-06T12:56:37;2.10;;;1.70;;
13349;SDS011;6744;53.190;6.576;2023-08-06T12:59:02;2.20;;;1.83;;
13349;SDS011;6744;53.190;6.576;2023-08-06T13:01:27;2.10;;;1.90;;
13349;SDS011;6744;53.190;6.576;2023-08-06T13:03:53;2.17;;;1.60;;
13349;SDS011;6744;53.190;6.576;2023-08-06T13:06:18;2.17;;;1.90;;
13349;SDS011;6744;53.190;6.576;2023-08-06T13:08:43;2.90;;;1.80;;
13349;SDS011;6744;53.190;6.576;2023-08-06T13:11:09;2.40;;;1.47;;
13349;SDS011;6744;53.190;6.576;2023-08-06T13:13:34;1.77;;;1.63;;
13349;SDS011;6744;53.190;6.576;2023-08-06T13:16:00;1.70;;;1.60;;
13349;SDS011;6744;53.190;6.576;2023-08-06T13:18:25;2.40;;;1.83;;
13349;SDS011;6744;53.190;6.576;2023-08-06T13:20:53;2.07;;;1.70;;
13349;SDS011;6744;53.190;6.576;2023-08-06T13:23:19;1.57;;;1.47;;
13349;SDS011;6744;53.190;6.576;2023-08-06T13:25:45;1.97;;;1.73;;
13349;SDS011;6744;53.190;6.576;2023-08-06T13:28:10;1.97;;;1.77;;
13349;SDS011;6744;53.190;6.576;2023-08-06T13:30:36;1.90;;;1.63;;
13349;SDS011;6744;53.190;6.576;2023-08-06T13:33:06;2.90;;;1.80;;
13349;SDS011;6744;53.190;6.576;2023-08-06T13:35:32;2.47;;;1.60;;
13349;SDS011;6744;53.190;6.576;2023-08-06T13:37:57;2.63;;;1.60;;
13349;SDS011;6744;53.190;6.576;2023-08-06T13:40:23;2.37;;;2.00;;
13349;SDS011;6744;53.190;6.576;2023-08-06T13:42:48;1.57;;;1.47;;
13349;SDS011;6744;53.190;6.576;2023-08-06T13:45:13;1.97;;;1.40;;
13349;SDS011;6744;53.190;6.576;2023-08-06T13:47:39;2.17;;;1.70;;
13349;SDS011;6744;53.190;6.576;2023-08-06T13:50:04;2.33;;;1.73;;
13349;SDS011;6744;53.190;6.576;2023-08-06T13:52:30;2.07;;;1.67;;
13349;SDS011;6744;53.190;6.576;2023-08-06T13:54:56;1.50;;;1.40;;
13349;SDS011;6744;53.190;6.576;2023-08-06T13:57:21;1.87;;;1.70;;
13349;SDS011;6744;53.190;6.576;2023-08-06T13:59:46;1.87;;;1.63;;
13349;SDS011;6744;53.190;6.576;2023-08-06T14:02:12;1.97;;;1.63;;
13349;SDS011;6744;53.190;6.576;2023-08-06T14:04:37;2.70;;;1.70;;
13349;SDS011;6744;53.190;6.576;2023-08-06T14:07:03;2.90;;;1.90;;
13349;SDS011;6744;53.190;6.576;2023-08-06T14:09:29;2.03;;;1.60;;
13349;SDS011;6744;53.190;6.576;2023-08-06T14:11:54;1.70;;;1.60;;
13349;SDS011;6744;53.190;6.576;2023-08-06T14:14:20;1.70;;;1.60;;
13349;SDS011;6744;53.190;6.576;2023-08-06T14:16:51;1.40;;;1.30;;
13349;SDS011;6744;53.190;6.576;2023-08-06T14:19:16;2.43;;;1.43;;
13349;SDS011;6744;53.190;6.576;2023-08-06T14:21:42;1.60;;;1.50;;
13349;SDS011;6744;53.190;6.576;2023-08-06T14:24:07;1.83;;;1.60;;
13349;SDS011;6744;53.190;6.576;2023-08-06T14:26:32;1.80;;;1.60;;
13349;SDS011;6744;53.190;6.576;2023-08-06T14:28:58;1.60;;;1.50;;
13349;SDS011;6744;53.190;6.576;2023-08-06T14:31:23;1.70;;;1.60;;
13349;SDS011;6744;53.190;6.576;2023-08-06T14:33:49;1.97;;;1.37;;
13349;SDS011;6744;53.190;6.576;2023-08-06T14:36:14;1.70;;;1.53;;
13349;SDS011;6744;53.190;6.576;2023-08-06T14:38:39;1.90;;;1.70;;
13349;SDS011;6744;53.190;6.576;2023-08-06T14:41:05;1.70;;;1.60;;
13349;SDS011;6744;53.190;6.576;2023-08-06T14:43:31;2.43;;;1.60;;
13349;SDS011;6744;53.190;6.576;2023-08-06T14:45:56;2.13;;;1.30;;
13349;SDS011;6744;53.190;6.576;2023-08-06T14:48:22;2.23;;;1.60;;
13349;SDS011;6744;53.190;6.576;2023-08-06T14:50:47;1.40;;;1.30;;
13349;SDS011;6744;53.190;6.576;2023-08-06T14:53:12;1.93;;;1.43;;
13349;SDS011;6744;53.190;6.576;2023-08-06T14:55:38;2.37;;;1.70;;
13349;SDS011;6744;53.190;6.576;2023-08-06T14:58:03;1.97;;;1.70;;
13349;SDS011;6744;53.190;6.576;2023-08-06T15:00:29;1.87;;;1.40;;
13349;SDS011;6744;53.190;6.576;2023-08-06T15:02:55;1.80;;;1.50;;